createdAt,value
2023-07-14T00:01:56.020Z,3.20
2023-07-14T00:04:33.391Z,2.93
2023-07-14T00:07:01.035Z,3.03
2023-07-14T00:09:30.279Z,3.47
2023-07-14T00:11:57.698Z,3.38
2023-07-14T00:14:24.681Z,3.40
2023-07-14T00:16:53.374Z,3.00
2023-07-14T00:19:21.286Z,3.30
2023-07-14T00:21:49.107Z,3.38
2023-07-14T00:24:18.497Z,3.70
2023-07-14T00:26:58.546Z,3.22
2023-07-14T00:29:35.933Z,3.20
2023-07-14T00:32:10.102Z,3.38
2023-07-14T00:34:37.057Z,3.67
2023-07-14T00:37:04.005Z,3.30
2023-07-14T00:39:31.579Z,3.10
2023-07-14T00:41:58.501Z,3.53
2023-07-14T00:44:25.997Z,3.00
2023-07-14T00:46:53.121Z,3.38
2023-07-14T00:49:48.409Z,3.50
2023-07-14T00:52:26.984Z,3.60
2023-07-14T00:54:53.834Z,3.73
2023-07-14T00:57:24.131Z,3.70
2023-07-14T00:59:55.084Z,3.60
2023-07-14T01:02:24.348Z,3.40
2023-07-14T01:05:01.303Z,3.58
2023-07-14T01:07:36.402Z,3.53
2023-07-14T01:10:04.603Z,3.08
2023-07-14T01:12:34.279Z,3.97
2023-07-14T01:15:02.456Z,3.70
2023-07-14T01:17:29.582Z,3.38
2023-07-14T01:20:01.663Z,3.40
2023-07-14T01:22:49.588Z,3.50
2023-07-14T01:25:37.433Z,3.35
2023-07-14T01:28:13.249Z,4.25
2023-07-14T01:30:42.670Z,3.60
2023-07-14T01:33:19.795Z,3.40
2023-07-14T01:35:56.257Z,4.43
2023-07-14T01:38:24.271Z,3.58
2023-07-14T01:40:51.638Z,4.50
2023-07-14T01:43:18.864Z,3.70
2023-07-14T01:45:58.475Z,3.77
2023-07-14T01:48:33.021Z,3.80
2023-07-14T01:51:06.301Z,4.05
2023-07-14T01:53:40.309Z,3.92
2023-07-14T01:56:10.933Z,3.83
2023-07-14T01:58:50.439Z,4.43
2023-07-14T02:01:18.900Z,3.92
2023-07-14T02:03:50.824Z,4.45
2023-07-14T02:06:18.207Z,4.35
2023-07-14T02:08:46.689Z,4.25
2023-07-14T02:11:19.835Z,4.57
2023-07-14T02:13:47.541Z,4.55
2023-07-14T02:16:16.788Z,4.32
2023-07-14T02:18:45.654Z,4.28
2023-07-14T02:21:21.848Z,4.85
2023-07-14T02:23:50.015Z,4.17
2023-07-14T02:26:27.422Z,4.18
2023-07-14T02:28:56.608Z,4.78
2023-07-14T02:31:28.824Z,4.50
2023-07-14T02:33:55.667Z,4.28
2023-07-14T02:36:45.048Z,3.90
2023-07-14T02:39:12.277Z,4.80
2023-07-14T02:41:43.207Z,5.07
2023-07-14T02:44:14.398Z,4.65
2023-07-14T02:46:50.155Z,4.38
2023-07-14T02:49:17.102Z,4.70
2023-07-14T02:51:44.282Z,4.65
2023-07-14T02:54:11.484Z,4.38
2023-07-14T02:56:38.650Z,4.00
2023-07-14T02:59:07.027Z,4.40
2023-07-14T03:01:34.103Z,5.13
2023-07-14T03:04:01.896Z,4.28
2023-07-14T03:06:29.417Z,4.15
2023-07-14T03:08:56.441Z,4.80
2023-07-14T03:11:23.532Z,4.78
2023-07-14T03:13:50.507Z,4.70
2023-07-14T03:16:17.469Z,4.75
2023-07-14T03:18:44.529Z,4.85
2023-07-14T03:21:12.253Z,4.50
2023-07-14T03:23:39.592Z,4.75
2023-07-14T03:26:09.280Z,5.53
2023-07-14T03:28:37.128Z,5.20
2023-07-14T03:31:05.377Z,5.20
2023-07-14T03:33:35.082Z,5.45
2023-07-14T03:36:09.844Z,5.45
2023-07-14T03:38:43.479Z,4.63
2023-07-14T03:41:12.126Z,5.00
2023-07-14T03:43:39.318Z,5.38
2023-07-14T03:46:07.441Z,5.47
2023-07-14T03:48:34.706Z,5.07
2023-07-14T03:51:03.403Z,5.07
2023-07-14T03:53:30.537Z,4.82
2023-07-14T03:55:58.891Z,5.30
2023-07-14T03:58:25.998Z,4.97
2023-07-14T04:00:59.725Z,5.15
2023-07-14T04:03:26.787Z,5.47
2023-07-14T04:05:53.795Z,5.20
2023-07-14T04:08:22.843Z,5.53
2023-07-14T04:10:49.994Z,5.00
2023-07-14T04:13:16.940Z,5.40
2023-07-14T04:15:43.802Z,5.77
2023-07-14T04:18:10.670Z,5.43
2023-07-14T04:20:38.049Z,4.85
2023-07-14T04:23:06.407Z,4.78
2023-07-14T04:25:35.904Z,5.32
2023-07-14T04:28:03.773Z,4.73
2023-07-14T04:30:31.793Z,5.60
2023-07-14T04:32:59.290Z,5.03
2023-07-14T04:35:26.787Z,4.85
2023-07-14T04:37:53.656Z,5.53
2023-07-14T04:40:35.787Z,5.17
2023-07-14T04:43:04.103Z,4.55
2023-07-14T04:45:31.237Z,4.95
2023-07-14T04:48:00.909Z,4.80
2023-07-14T04:50:27.858Z,4.95
2023-07-14T04:52:54.693Z,4.67
2023-07-14T04:55:21.606Z,4.90
2023-07-14T04:57:48.811Z,4.35
2023-07-14T05:00:19.183Z,4.32
2023-07-14T05:02:46.173Z,6.57
2023-07-14T05:05:14.914Z,4.60
2023-07-14T05:07:42.180Z,5.95
2023-07-14T05:10:09.530Z,4.80
2023-07-14T05:12:36.783Z,5.00
2023-07-14T05:15:07.984Z,4.57
2023-07-14T05:17:35.468Z,4.33
2023-07-14T05:20:02.751Z,5.57
2023-07-14T05:22:29.896Z,5.10
2023-07-14T05:24:56.725Z,4.93
2023-07-14T05:27:23.849Z,4.40
2023-07-14T05:29:51.296Z,4.57
2023-07-14T05:32:18.219Z,4.97
2023-07-14T05:34:45.080Z,4.68
2023-07-14T05:37:12.709Z,3.83
2023-07-14T05:39:39.785Z,4.32
2023-07-14T05:42:06.913Z,4.17
2023-07-14T05:44:33.973Z,3.38
2023-07-14T05:47:00.947Z,4.28
2023-07-14T05:49:27.863Z,4.55
2023-07-14T05:51:55.141Z,3.67
2023-07-14T05:54:22.686Z,3.57
2023-07-14T05:56:49.723Z,3.67
2023-07-14T05:59:16.883Z,4.40
2023-07-14T06:01:44.118Z,3.22
2023-07-14T06:04:11.278Z,3.22
2023-07-14T06:06:38.402Z,3.00
2023-07-14T06:09:06.246Z,4.60
2023-07-14T06:11:33.229Z,3.67
2023-07-14T06:14:00.202Z,3.55
2023-07-14T06:16:27.748Z,4.00
2023-07-14T06:18:55.107Z,3.23
2023-07-14T06:21:22.025Z,4.05
2023-07-14T06:23:48.856Z,4.05
2023-07-14T06:26:16.270Z,3.90
2023-07-14T06:28:43.797Z,3.45
2023-07-14T06:31:14.386Z,3.87
2023-07-14T06:33:42.046Z,3.42
2023-07-14T06:36:09.338Z,4.03
2023-07-14T06:38:36.380Z,3.65
2023-07-14T06:41:05.460Z,3.75
2023-07-14T06:43:33.312Z,4.30
2023-07-14T06:46:00.821Z,4.10
2023-07-14T06:48:28.465Z,4.13
2023-07-14T06:50:55.500Z,3.72
2023-07-14T06:53:25.522Z,3.95
2023-07-14T06:55:52.485Z,3.93
2023-07-14T06:58:20.242Z,3.90
2023-07-14T07:00:47.163Z,4.00
2023-07-14T07:03:14.224Z,3.95
2023-07-14T07:05:44.877Z,5.13
2023-07-14T07:08:14.010Z,3.67
2023-07-14T07:10:42.666Z,3.83
2023-07-14T07:13:10.731Z,3.83
2023-07-14T07:15:37.835Z,4.05
2023-07-14T07:18:04.926Z,3.78
2023-07-14T07:20:31.943Z,3.70
2023-07-14T07:22:58.873Z,3.78
2023-07-14T07:25:25.836Z,3.80
2023-07-14T07:27:52.720Z,3.78
2023-07-14T07:30:19.655Z,3.40
2023-07-14T07:32:47.948Z,3.57
2023-07-14T07:35:15.524Z,3.78
2023-07-14T07:37:42.443Z,4.28
2023-07-14T07:40:10.327Z,3.72
2023-07-14T07:42:37.302Z,3.70
2023-07-14T07:45:04.590Z,3.80
2023-07-14T07:47:31.564Z,4.20
2023-07-14T07:49:58.446Z,4.40
2023-07-14T07:52:25.317Z,4.25
2023-07-14T07:54:52.264Z,5.15
2023-07-14T07:57:19.055Z,4.47
2023-07-14T07:59:45.935Z,3.83
2023-07-14T08:02:13.640Z,3.60
2023-07-14T08:04:40.670Z,4.18
2023-07-14T08:07:12.480Z,4.72
2023-07-14T08:09:39.642Z,4.33
2023-07-14T08:12:07.315Z,4.25
2023-07-14T08:14:57.129Z,4.63
2023-07-14T08:17:29.498Z,4.28
2023-07-14T08:19:56.564Z,3.88
2023-07-14T08:22:24.388Z,4.70
2023-07-14T08:24:51.590Z,4.00
2023-07-14T08:27:18.547Z,4.40
2023-07-14T08:29:45.417Z,3.88
2023-07-14T08:32:12.245Z,4.57
2023-07-14T08:34:39.043Z,4.80
2023-07-14T08:37:06.104Z,4.32
2023-07-14T08:39:34.134Z,4.75
2023-07-14T08:42:08.857Z,4.88
2023-07-14T08:44:52.448Z,4.90
2023-07-14T08:47:34.150Z,5.30
2023-07-14T08:50:07.882Z,5.00
2023-07-14T08:52:36.882Z,4.68
2023-07-14T08:55:06.048Z,4.93
2023-07-14T08:57:57.606Z,4.53
2023-07-14T09:00:51.911Z,4.47
2023-07-14T09:03:38.467Z,4.10
2023-07-14T09:06:13.846Z,4.50
2023-07-14T09:08:41.045Z,3.90
2023-07-14T09:11:25.988Z,4.15
2023-07-14T09:14:04.632Z,4.00
2023-07-14T09:16:35.903Z,4.15
2023-07-14T09:19:24.471Z,4.25
2023-07-14T09:22:00.169Z,4.35
2023-07-14T09:24:32.245Z,3.88
2023-07-14T09:26:59.181Z,4.63
2023-07-14T09:29:28.978Z,4.38
2023-07-14T09:32:27.532Z,4.10
2023-07-14T09:35:10.610Z,4.13
2023-07-14T09:37:50.993Z,4.32
2023-07-14T09:40:24.264Z,3.93
2023-07-14T09:42:52.831Z,3.92
2023-07-14T09:45:23.914Z,4.13
2023-07-14T09:48:03.211Z,3.80
2023-07-14T09:50:37.776Z,4.10
2023-07-14T09:53:08.982Z,3.20
2023-07-14T09:55:54.173Z,3.55
2023-07-14T09:58:26.562Z,3.22
2023-07-14T10:00:58.176Z,3.45
2023-07-14T10:03:43.795Z,3.20
2023-07-14T10:06:32.434Z,3.93
2023-07-14T10:09:13.603Z,2.63
2023-07-14T10:11:44.685Z,2.70
2023-07-14T10:14:22.069Z,2.75
2023-07-14T10:16:49.318Z,2.75
2023-07-14T10:19:21.203Z,2.83
2023-07-14T10:22:00.745Z,3.10
2023-07-14T10:24:28.753Z,3.33
2023-07-14T10:27:04.137Z,3.20
2023-07-14T10:29:48.443Z,3.33
2023-07-14T10:32:30.051Z,3.03
2023-07-14T10:35:16.254Z,3.60
2023-07-14T10:37:57.812Z,3.10
2023-07-14T10:40:28.162Z,3.05
2023-07-14T10:43:21.685Z,2.85
2023-07-14T10:45:56.053Z,3.20
2023-07-14T10:48:42.930Z,3.55
2023-07-14T10:51:25.883Z,3.03
2023-07-14T10:54:11.157Z,2.85
2023-07-14T10:56:44.690Z,3.60
2023-07-14T10:59:30.765Z,3.07
2023-07-14T11:02:39.707Z,3.47
2023-07-14T11:05:14.780Z,3.47
2023-07-14T11:07:41.859Z,3.13
2023-07-14T11:10:40.760Z,3.42
2023-07-14T11:13:21.914Z,3.27
2023-07-14T11:15:53.770Z,3.78
2023-07-14T11:18:51.491Z,3.03
2023-07-14T11:21:39.691Z,3.33
2023-07-14T11:24:20.785Z,3.30
2023-07-14T11:27:01.391Z,2.87
2023-07-14T11:29:34.208Z,3.08
2023-07-14T11:32:03.182Z,3.28
2023-07-14T11:34:58.654Z,3.30
2023-07-14T11:37:45.721Z,3.22
2023-07-14T11:40:21.382Z,3.33
2023-07-14T11:42:54.607Z,2.67
2023-07-14T11:45:25.534Z,2.85
2023-07-14T11:47:52.879Z,3.20
2023-07-14T11:50:38.453Z,3.22
2023-07-14T11:53:06.770Z,2.93
2023-07-14T11:55:36.577Z,2.85
2023-07-14T11:58:22.322Z,3.03
2023-07-14T12:00:57.234Z,2.33
2023-07-14T12:03:48.100Z,2.55
2023-07-14T12:06:25.788Z,2.50
2023-07-14T12:09:13.661Z,3.00
2023-07-14T12:11:42.801Z,2.67
2023-07-14T12:14:29.297Z,3.20
2023-07-14T12:16:56.712Z,2.80
2023-07-14T12:19:32.784Z,3.00
2023-07-14T12:22:37.439Z,2.40
2023-07-14T12:25:19.197Z,3.17
2023-07-14T12:27:51.296Z,2.88
2023-07-14T12:30:30.561Z,3.22
2023-07-14T12:33:04.552Z,3.03
2023-07-14T12:35:33.328Z,3.20
2023-07-14T12:38:17.189Z,3.15
2023-07-14T12:40:45.352Z,3.58
2023-07-14T12:43:41.744Z,3.20
2023-07-14T12:46:31.083Z,2.90
2023-07-14T12:49:25.778Z,3.53
2023-07-14T12:51:52.746Z,2.85
2023-07-14T12:54:27.015Z,2.53
2023-07-14T12:56:59.947Z,2.55
2023-07-14T12:59:26.957Z,2.43
2023-07-14T13:01:54.920Z,3.40
2023-07-14T13:04:23.436Z,2.60
2023-07-14T13:07:05.691Z,2.70
2023-07-14T13:09:33.576Z,2.20
2023-07-14T13:12:00.701Z,2.50
2023-07-14T13:14:36.873Z,2.78
2023-07-14T13:17:04.843Z,3.28
2023-07-14T13:19:46.666Z,2.60
2023-07-14T13:22:29.462Z,2.60
2023-07-14T13:25:19.690Z,2.23
2023-07-14T13:27:47.033Z,2.70
2023-07-14T13:30:24.876Z,2.97
2023-07-14T13:32:53.203Z,3.10
2023-07-14T13:35:32.235Z,2.65
2023-07-14T13:38:06.709Z,2.63
2023-07-14T13:40:38.319Z,2.67
2023-07-14T13:43:15.502Z,3.40
2023-07-14T13:45:43.779Z,3.05
2023-07-14T13:48:25.703Z,2.58
2023-07-14T13:50:52.796Z,2.20
2023-07-14T13:53:19.537Z,2.65
2023-07-14T13:55:46.326Z,2.30
2023-07-14T13:58:13.311Z,2.30
2023-07-14T14:00:41.191Z,2.47
2023-07-14T14:03:11.803Z,2.60
2023-07-14T14:05:40.716Z,2.30
2023-07-14T14:08:12.913Z,2.88
2023-07-14T14:10:39.683Z,2.42
2023-07-14T14:13:06.513Z,2.10
2023-07-14T14:15:39.615Z,1.90
2023-07-14T14:18:16.288Z,2.20
2023-07-14T14:20:43.175Z,2.13
2023-07-14T14:23:15.479Z,1.80
2023-07-14T14:25:42.984Z,1.92
2023-07-14T14:28:09.932Z,2.20
2023-07-14T14:30:46.706Z,2.30
2023-07-14T14:33:18.251Z,1.92
2023-07-14T14:35:45.141Z,2.30
2023-07-14T14:38:32.690Z,1.83
2023-07-14T14:41:16.104Z,2.30
2023-07-14T14:43:43.149Z,2.10
2023-07-14T14:46:10.504Z,2.33
2023-07-14T14:48:41.663Z,2.25
2023-07-14T14:51:13.931Z,2.10
2023-07-14T14:53:42.211Z,2.20
2023-07-14T14:56:31.058Z,2.05
2023-07-14T14:59:10.395Z,2.38
2023-07-14T15:01:46.502Z,2.28
2023-07-14T15:04:19.960Z,2.30
2023-07-14T15:06:48.204Z,2.17
2023-07-14T15:09:17.512Z,2.58
2023-07-14T15:11:46.990Z,2.30
2023-07-14T15:14:36.844Z,2.40
2023-07-14T15:17:25.500Z,2.08
2023-07-14T15:19:53.313Z,2.23
2023-07-14T15:22:22.687Z,2.80
2023-07-14T15:24:51.476Z,2.95
2023-07-14T15:27:34.001Z,2.40
2023-07-14T15:30:24.513Z,2.78
2023-07-14T15:32:56.180Z,2.40
2023-07-14T15:35:31.024Z,2.85
2023-07-14T15:38:05.111Z,2.63
2023-07-14T15:40:53.232Z,2.80
2023-07-14T15:43:27.558Z,2.70
2023-07-14T15:45:58.174Z,2.80
2023-07-14T15:48:42.011Z,2.67
2023-07-14T15:51:21.160Z,2.80
2023-07-14T15:53:48.650Z,2.58
2023-07-14T15:56:17.911Z,2.83
2023-07-14T15:58:45.512Z,2.40
2023-07-14T16:01:27.166Z,2.70
2023-07-14T16:03:56.878Z,2.72
2023-07-14T16:06:25.038Z,2.10
2023-07-14T16:08:55.579Z,2.45
2023-07-14T16:11:49.777Z,2.20
2023-07-14T16:14:16.729Z,2.50
2023-07-14T16:16:43.931Z,2.75
2023-07-14T16:19:11.211Z,2.30
2023-07-14T16:21:48.073Z,2.90
2023-07-14T16:24:23.532Z,2.23
2023-07-14T16:26:54.392Z,2.15
2023-07-14T16:29:22.009Z,2.67
2023-07-14T16:31:49.144Z,2.63
2023-07-14T16:34:16.119Z,2.50
2023-07-14T16:36:43.273Z,2.37
2023-07-14T16:39:23.839Z,2.00
2023-07-14T16:41:50.994Z,2.33
2023-07-14T16:44:18.368Z,2.15
2023-07-14T16:46:52.653Z,2.55
2023-07-14T16:49:19.718Z,2.10
2023-07-14T16:51:50.380Z,2.53
2023-07-14T16:54:22.517Z,2.10
2023-07-14T16:56:49.452Z,2.78
2023-07-14T16:59:16.245Z,2.50
2023-07-14T17:01:43.151Z,3.07
2023-07-14T17:04:17.194Z,2.53
2023-07-14T17:06:49.910Z,2.42
2023-07-14T17:09:21.644Z,2.95
2023-07-14T17:11:49.648Z,2.63
2023-07-14T17:14:22.193Z,2.73
2023-07-14T17:16:49.847Z,2.65
2023-07-14T17:19:18.666Z,2.80
2023-07-14T17:21:49.530Z,2.30
2023-07-14T17:24:19.391Z,2.70
2023-07-14T17:26:46.352Z,2.83
2023-07-14T17:29:29.345Z,3.03
2023-07-14T17:31:56.564Z,2.83
2023-07-14T17:34:23.628Z,2.80
2023-07-14T17:36:51.072Z,3.50
2023-07-14T17:39:40.434Z,2.97
2023-07-14T17:42:17.537Z,3.00
2023-07-14T17:44:44.450Z,2.70
2023-07-14T17:47:11.392Z,2.70
2023-07-14T17:49:38.286Z,3.08
2023-07-14T17:52:05.682Z,2.87
2023-07-14T17:54:34.626Z,3.10
2023-07-14T17:57:01.352Z,3.08
2023-07-14T17:59:28.683Z,3.42
2023-07-14T18:02:08.267Z,3.13
2023-07-14T18:04:35.970Z,3.60
2023-07-14T18:07:02.846Z,3.13
2023-07-14T18:09:29.637Z,3.10
2023-07-14T18:11:56.952Z,3.40
2023-07-14T18:14:24.245Z,3.10
2023-07-14T18:16:51.574Z,3.20
2023-07-14T18:19:20.510Z,3.03
2023-07-14T18:21:53.983Z,3.40
2023-07-14T18:24:41.846Z,2.75
2023-07-14T18:27:18.539Z,3.42
2023-07-14T18:29:46.149Z,3.07
2023-07-14T18:32:13.004Z,3.60
2023-07-14T18:34:39.777Z,3.22
2023-07-14T18:37:12.001Z,3.10
2023-07-14T18:39:41.081Z,3.10
2023-07-14T18:42:13.944Z,3.43
2023-07-14T18:44:40.840Z,3.30
2023-07-14T18:47:13.689Z,3.13
2023-07-14T18:49:41.988Z,3.15
2023-07-14T18:52:14.649Z,3.15
2023-07-14T18:54:41.546Z,2.90
2023-07-14T18:57:20.178Z,3.22
2023-07-14T18:59:48.112Z,3.53
2023-07-14T19:02:27.829Z,2.95
2023-07-14T19:04:58.341Z,3.00
2023-07-14T19:07:27.885Z,2.63
2023-07-14T19:09:55.018Z,3.42
2023-07-14T19:12:24.801Z,2.75
2023-07-14T19:14:51.735Z,3.05
2023-07-14T19:17:18.669Z,3.25
2023-07-14T19:19:45.539Z,3.10
2023-07-14T19:22:13.946Z,3.17
2023-07-14T19:24:40.872Z,3.17
2023-07-14T19:27:18.952Z,3.45
2023-07-14T19:29:47.057Z,2.78
2023-07-14T19:32:16.799Z,3.37
2023-07-14T19:34:48.980Z,3.17
2023-07-14T19:37:16.000Z,3.50
2023-07-14T19:39:42.745Z,3.45
2023-07-14T19:42:17.652Z,3.17
2023-07-14T19:44:45.662Z,3.63
2023-07-14T19:47:20.069Z,3.03
2023-07-14T19:49:47.445Z,3.47
2023-07-14T19:52:14.562Z,3.60
2023-07-14T19:54:42.609Z,3.53
2023-07-14T19:57:19.414Z,3.10
2023-07-14T19:59:57.724Z,3.10
2023-07-14T20:02:27.848Z,3.97
2023-07-14T20:04:55.625Z,3.28
2023-07-14T20:07:23.066Z,3.67
2023-07-14T20:09:49.980Z,3.80
2023-07-14T20:12:20.552Z,3.53
2023-07-14T20:14:47.758Z,3.80
2023-07-14T20:17:15.989Z,3.85
2023-07-14T20:19:42.863Z,4.28
2023-07-14T20:22:21.205Z,3.53
2023-07-14T20:24:48.686Z,4.20
2023-07-14T20:27:21.972Z,4.25
2023-07-14T20:29:49.960Z,4.13
2023-07-14T20:32:17.269Z,4.10
2023-07-14T20:34:44.107Z,3.87
2023-07-14T20:37:15.894Z,4.10
2023-07-14T20:39:43.627Z,4.72
2023-07-14T20:42:15.486Z,3.88
2023-07-14T20:44:45.280Z,4.03
2023-07-14T20:47:18.117Z,4.03
2023-07-14T20:49:46.954Z,4.18
2023-07-14T20:52:20.660Z,3.85
2023-07-14T20:54:48.272Z,3.95
2023-07-14T20:57:17.704Z,4.45
2023-07-14T20:59:45.358Z,3.93
2023-07-14T21:02:20.889Z,4.03
2023-07-14T21:04:47.787Z,3.80
2023-07-14T21:07:15.404Z,4.30
2023-07-14T21:09:43.271Z,4.10
2023-07-14T21:12:17.896Z,3.70
2023-07-14T21:14:44.814Z,4.25
2023-07-14T21:17:14.131Z,4.32
2023-07-14T21:19:41.292Z,4.43
2023-07-14T21:22:14.490Z,4.63
2023-07-14T21:24:41.988Z,4.67
2023-07-14T21:27:18.017Z,4.70
2023-07-14T21:29:44.993Z,4.68
2023-07-14T21:32:30.437Z,4.40
2023-07-14T21:34:58.348Z,4.55
2023-07-14T21:37:25.217Z,4.40
2023-07-14T21:39:52.277Z,5.90
2023-07-14T21:42:19.535Z,4.80
2023-07-14T21:44:47.428Z,4.00
2023-07-14T21:47:14.416Z,4.88
2023-07-14T21:49:41.752Z,4.43
2023-07-14T21:52:13.993Z,4.50
2023-07-14T21:54:40.903Z,5.15
2023-07-14T21:57:12.304Z,4.63
2023-07-14T21:59:39.726Z,4.55
2023-07-14T22:02:14.062Z,3.97
2023-07-14T22:04:41.155Z,4.25
2023-07-14T22:07:12.601Z,4.07
2023-07-14T22:09:39.534Z,3.90
2023-07-14T22:12:16.754Z,4.40
2023-07-14T22:14:43.766Z,4.63
2023-07-14T22:17:14.929Z,4.03
2023-07-14T22:19:41.933Z,4.35
2023-07-14T22:22:09.990Z,3.92
2023-07-14T22:24:36.881Z,3.92
2023-07-14T22:27:03.868Z,4.47
2023-07-14T22:29:30.667Z,4.10
2023-07-14T22:31:58.261Z,4.32
2023-07-14T22:34:25.010Z,4.30
2023-07-14T22:36:51.763Z,4.65
2023-07-14T22:39:20.380Z,4.40
2023-07-14T22:41:49.181Z,4.20
2023-07-14T22:44:18.376Z,5.03
2023-07-14T22:46:46.052Z,4.10
2023-07-14T22:49:13.839Z,4.10
2023-07-14T22:51:42.257Z,3.50
2023-07-14T22:54:12.810Z,4.50
2023-07-14T22:56:40.016Z,4.43
2023-07-14T22:59:06.947Z,4.35
2023-07-14T23:01:35.609Z,3.85
2023-07-14T23:04:03.589Z,3.70
2023-07-14T23:06:30.376Z,4.22
2023-07-14T23:08:57.482Z,5.03
2023-07-14T23:11:30.043Z,4.10
2023-07-14T23:13:56.843Z,3.92
2023-07-14T23:16:24.622Z,3.33
2023-07-14T23:18:52.526Z,4.43
2023-07-14T23:21:24.636Z,3.90
2023-07-14T23:23:53.101Z,3.88
2023-07-14T23:26:22.935Z,4.07
2023-07-14T23:28:54.946Z,3.80
2023-07-14T23:31:35.073Z,3.60
2023-07-14T23:34:02.828Z,3.55
2023-07-14T23:36:31.165Z,3.40
2023-07-14T23:38:58.406Z,3.25
2023-07-14T23:41:31.866Z,3.00
2023-07-14T23:44:01.155Z,2.90
2023-07-14T23:46:29.816Z,3.10
2023-07-14T23:48:57.908Z,2.97
2023-07-14T23:51:27.498Z,2.97
2023-07-14T23:53:55.522Z,3.17
2023-07-14T23:56:22.355Z,3.03
2023-07-14T23:58:49.603Z,2.83
